Time,TemperatureF,DewpointF,PressureIn,WindDirection,WindDirectionDegrees,WindSpeedMPH,WindSpeedGustMPH,Humidity,HourlyPrecipIn,Conditions,Clouds,dailyrainin,SolarRadiationWatts/m^2,SoftwareType,DateUTC
2013-04-21 00:02:00,59.0,52.0,-100.00,WSW,240,2.0,12.0,78,0.00,,,0.01,258.000000,,2013-04-21 04:02:00,
2013-04-21 00:12:00,59.0,52.0,-100.00,WSW,240,2.0,12.0,78,0.00,,,0.01,258.000000,,2013-04-21 04:12:00,
2013-04-21 00:22:00,59.0,52.0,-100.00,WSW,240,2.0,12.0,78,0.00,,,0.01,258.000000,,2013-04-21 04:22:00,
2013-04-21 00:32:00,59.0,52.0,-100.00,WSW,240,2.0,12.0,78,0.00,,,0.01,258.000000,,2013-04-21 04:32:00,
2013-04-21 00:53:00,60.0,52.0,-100.00,SSW,200,5.0,10.0,76,0.00,,,0.00,136.000000,,2013-04-21 04:53:00,
2013-04-21 01:02:00,60.0,52.0,-100.00,SSW,200,5.0,10.0,76,0.00,,,0.00,136.000000,,2013-04-21 05:02:00,
2013-04-21 01:12:00,60.0,52.0,-100.00,SSW,200,5.0,10.0,76,0.00,,,0.00,136.000000,,2013-04-21 05:12:00,
2013-04-21 01:22:00,60.0,52.0,-100.00,SSW,200,5.0,10.0,76,0.00,,,0.00,136.000000,,2013-04-21 05:22:00,
2013-04-21 01:32:00,60.0,52.0,-100.00,SSW,200,5.0,10.0,76,0.00,,,0.00,136.000000,,2013-04-21 05:32:00,
2013-04-21 01:52:00,55.0,46.0,-100.00,ENE,65,5.0,9.0,72,0.00,,,0.00,20.000000,,2013-04-21 05:52:00,
2013-04-21 02:01:00,55.0,46.0,-100.00,ENE,65,5.0,9.0,72,0.00,,,0.00,20.000000,,2013-04-21 06:01:00,
2013-04-21 02:12:00,55.0,46.0,-100.00,ENE,65,5.0,9.0,72,0.00,,,0.00,20.000000,,2013-04-21 06:12:00,
2013-04-21 02:21:00,55.0,46.0,-100.00,ENE,65,5.0,9.0,72,0.00,,,0.00,20.000000,,2013-04-21 06:21:00,
2013-04-21 02:32:00,55.0,46.0,-100.00,ENE,65,5.0,9.0,72,0.00,,,0.00,20.000000,,2013-04-21 06:32:00,
2013-04-21 02:52:00,51.0,48.0,-100.00,East,88,2.0,7.0,89,0.00,,,0.00,0.000000,,2013-04-21 06:52:00,
2013-04-21 03:01:00,51.0,48.0,-100.00,East,88,2.0,7.0,89,0.00,,,0.00,0.000000,,2013-04-21 07:01:00,
2013-04-21 03:11:00,51.0,48.0,-100.00,East,88,2.0,7.0,89,0.00,,,0.00,0.000000,,2013-04-21 07:11:00,
2013-04-21 03:21:00,51.0,48.0,-100.00,East,88,2.0,7.0,89,0.00,,,0.00,0.000000,,2013-04-21 07:21:00,
2013-04-21 03:31:00,51.0,48.0,-100.00,East,88,2.0,7.0,89,0.00,,,0.00,0.000000,,2013-04-21 07:31:00,
2013-04-21 03:52:00,52.0,44.0,-100.00,ENE,64,5.0,5.0,75,0.00,,,0.00,0.000000,,2013-04-21 07:52:00,
2013-04-21 04:01:00,52.0,44.0,-100.00,ENE,64,5.0,5.0,75,0.00,,,0.00,0.000000,,2013-04-21 08:01:00,
2013-04-21 04:12:00,52.0,44.0,-100.00,ENE,64,5.0,5.0,75,0.00,,,0.00,0.000000,,2013-04-21 08:12:00,
2013-04-21 04:21:00,52.0,44.0,-100.00,ENE,64,5.0,5.0,75,0.00,,,0.00,0.000000,,2013-04-21 08:21:00,
2013-04-21 04:32:00,52.0,44.0,-100.00,ENE,64,5.0,5.0,75,0.00,,,0.00,0.000000,,2013-04-21 08:32:00,
2013-04-21 04:52:00,51.0,33.0,-100.00,NE,53,3.0,7.0,50,0.00,,,0.00,0.000000,,2013-04-21 08:52:00,
2013-04-21 05:01:00,51.0,33.0,-100.00,NE,53,3.0,7.0,50,0.00,,,0.00,0.000000,,2013-04-21 09:01:00,
2013-04-21 05:11:00,51.0,33.0,-100.00,NE,53,3.0,7.0,50,0.00,,,0.00,0.000000,,2013-04-21 09:11:00,
2013-04-21 05:21:00,51.0,33.0,-100.00,NE,53,3.0,7.0,50,0.00,,,0.00,0.000000,,2013-04-21 09:21:00,
2013-04-21 05:32:00,51.0,33.0,-100.00,NE,53,3.0,7.0,50,0.00,,,0.00,0.000000,,2013-04-21 09:32:00,
2013-04-21 05:53:00,47.0,28.0,-100.00,ENE,63,1.0,7.0,47,0.00,,,0.00,0.000000,,2013-04-21 09:53:00,
2013-04-21 06:02:00,47.0,28.0,-100.00,ENE,63,1.0,7.0,47,0.00,,,0.00,0.000000,,2013-04-21 10:02:00,
2013-04-21 06:12:00,47.0,28.0,-100.00,ENE,63,1.0,7.0,47,0.00,,,0.00,0.000000,,2013-04-21 10:12:00,
2013-04-21 06:22:00,47.0,28.0,-100.00,ENE,63,1.0,7.0,47,0.00,,,0.00,0.000000,,2013-04-21 10:22:00,
2013-04-21 06:32:00,47.0,28.0,-100.00,ENE,63,1.0,7.0,47,0.00,,,0.00,0.000000,,2013-04-21 10:32:00,
2013-04-21 06:33:00,48.0,29.0,-100.00,ENE,59,1.0,6.0,48,0.00,,,0.00,0.000000,,2013-04-21 10:33:00,
2013-04-21 06:52:00,48.0,29.0,-100.00,ENE,59,1.0,6.0,48,0.00,,,0.00,0.000000,,2013-04-21 10:52:00,
2013-04-21 07:02:00,48.0,29.0,-100.00,ENE,59,1.0,6.0,48,0.00,,,0.00,0.000000,,2013-04-21 11:02:00,
2013-04-21 07:12:00,48.0,29.0,-100.00,ENE,59,1.0,6.0,48,0.00,,,0.00,0.000000,,2013-04-21 11:12:00,
2013-04-21 07:22:00,48.0,29.0,-100.00,ENE,59,1.0,6.0,48,0.00,,,0.00,0.000000,,2013-04-21 11:22:00,
2013-04-21 07:52:00,51.0,39.0,-100.00,ENE,61,2.0,8.0,63,0.00,,,0.00,0.000000,,2013-04-21 11:52:00,
2013-04-21 08:02:00,51.0,39.0,-100.00,ENE,61,2.0,8.0,63,0.00,,,0.00,0.000000,,2013-04-21 12:02:00,
2013-04-21 08:12:00,51.0,39.0,-100.00,ENE,61,2.0,8.0,63,0.00,,,0.00,0.000000,,2013-04-21 12:12:00,
2013-04-21 08:22:00,51.0,39.0,-100.00,ENE,61,2.0,8.0,63,0.00,,,0.00,0.000000,,2013-04-21 12:22:00,
2013-04-21 08:31:00,51.0,39.0,-100.00,ENE,61,2.0,8.0,63,0.00,,,0.00,0.000000,,2013-04-21 12:31:00,
2013-04-21 08:52:00,52.0,34.0,-100.00,ESE,122,1.0,11.0,50,0.00,,,0.00,0.000000,,2013-04-21 12:52:00,
2013-04-21 09:01:00,52.0,34.0,-100.00,ESE,122,1.0,11.0,50,0.00,,,0.00,0.000000,,2013-04-21 13:01:00,
2013-04-21 09:11:00,52.0,34.0,-100.00,ESE,122,1.0,11.0,50,0.00,,,0.00,0.000000,,2013-04-21 13:11:00,
2013-04-21 09:21:00,52.0,34.0,-100.00,ESE,122,1.0,11.0,50,0.00,,,0.00,0.000000,,2013-04-21 13:21:00,
2013-04-21 09:32:00,52.0,34.0,-100.00,ESE,122,1.0,11.0,50,0.00,,,0.00,0.000000,,2013-04-21 13:32:00,
2013-04-21 09:52:00,51.0,34.0,-100.00,ENE,75,7.0,12.0,51,0.00,,,0.00,0.000000,,2013-04-21 13:52:00,
2013-04-21 10:01:00,51.0,34.0,-100.00,ENE,75,7.0,12.0,51,0.00,,,0.00,0.000000,,2013-04-21 14:01:00,
2013-04-21 10:11:00,51.0,34.0,-100.00,ENE,75,7.0,12.0,51,0.00,,,0.00,0.000000,,2013-04-21 14:11:00,
2013-04-21 10:21:00,51.0,34.0,-100.00,ENE,75,7.0,12.0,51,0.00,,,0.00,0.000000,,2013-04-21 14:21:00,
2013-04-21 10:31:00,51.0,34.0,-100.00,ENE,75,7.0,12.0,51,0.00,,,0.00,0.000000,,2013-04-21 14:31:00,
2013-04-21 10:33:00,54.0,40.0,-100.00,East,84,11.0,16.0,59,0.00,,,-99.99,0.000000,,2013-04-21 14:33:00,
2013-04-21 10:52:00,54.0,40.0,-100.00,East,84,11.0,16.0,59,0.00,,,-99.99,0.000000,,2013-04-21 14:52:00,
2013-04-21 11:02:00,54.0,40.0,-100.00,East,84,11.0,16.0,59,0.00,,,-99.99,0.000000,,2013-04-21 15:02:00,
2013-04-21 11:11:00,54.0,40.0,-100.00,East,84,11.0,16.0,59,0.00,,,-99.99,0.000000,,2013-04-21 15:11:00,
2013-04-21 11:22:00,54.0,40.0,-100.00,East,84,11.0,16.0,59,0.00,,,-99.99,0.000000,,2013-04-21 15:22:00,
2013-04-21 11:53:00,54.0,39.0,-100.00,East,85,10.0,20.0,56,0.00,,,0.00,0.000000,,2013-04-21 15:53:00,
2013-04-21 12:03:00,54.0,39.0,-100.00,East,85,10.0,20.0,56,0.00,,,0.00,0.000000,,2013-04-21 16:03:00,
2013-04-21 12:12:00,54.0,39.0,-100.00,East,85,10.0,20.0,56,0.00,,,0.00,0.000000,,2013-04-21 16:12:00,
2013-04-21 12:22:00,54.0,39.0,-100.00,East,85,10.0,20.0,56,0.00,,,0.00,0.000000,,2013-04-21 16:22:00,
2013-04-21 12:32:00,54.0,39.0,-100.00,East,85,10.0,20.0,56,0.00,,,0.00,0.000000,,2013-04-21 16:32:00,
2013-04-21 12:52:00,52.0,41.0,-100.00,North,8,1.0,20.0,66,0.00,,,0.00,0.000000,,2013-04-21 16:52:00,
2013-04-21 13:02:00,52.0,41.0,-100.00,North,8,1.0,20.0,66,0.00,,,0.00,0.000000,,2013-04-21 17:02:00,
2013-04-21 13:12:00,52.0,41.0,-100.00,North,8,1.0,20.0,66,0.00,,,0.00,0.000000,,2013-04-21 17:12:00,
2013-04-21 13:22:00,52.0,41.0,-100.00,North,8,1.0,20.0,66,0.00,,,0.00,0.000000,,2013-04-21 17:22:00,
2013-04-21 13:32:00,52.0,41.0,-100.00,North,8,1.0,20.0,66,0.00,,,0.00,0.000000,,2013-04-21 17:32:00,
2013-04-21 13:52:00,60.0,47.0,-100.00,East,86,9.0,12.0,63,0.00,,,0.00,32.000000,,2013-04-21 17:52:00,
2013-04-21 14:02:00,60.0,47.0,-100.00,East,86,9.0,12.0,63,0.00,,,0.00,32.000000,,2013-04-21 18:02:00,
2013-04-21 14:11:00,60.0,47.0,-100.00,East,86,9.0,12.0,63,0.00,,,0.00,32.000000,,2013-04-21 18:11:00,
2013-04-21 14:21:00,60.0,47.0,-100.00,East,86,9.0,12.0,63,0.00,,,0.00,32.000000,,2013-04-21 18:21:00,
2013-04-21 14:32:00,60.0,47.0,-100.00,East,86,9.0,12.0,63,0.00,,,0.00,32.000000,,2013-04-21 18:32:00,
2013-04-21 14:52:00,64.0,47.0,-100.00,WSW,254,3.0,19.0,53,0.00,,,0.00,376.000000,,2013-04-21 18:52:00,
2013-04-21 15:02:00,64.0,47.0,-100.00,WSW,254,3.0,19.0,53,0.00,,,0.00,376.000000,,2013-04-21 19:02:00,
2013-04-21 15:11:00,64.0,47.0,-100.00,WSW,254,3.0,19.0,53,0.00,,,0.00,376.000000,,2013-04-21 19:11:00,
2013-04-21 15:21:00,64.0,47.0,-100.00,WSW,254,3.0,19.0,53,0.00,,,0.00,376.000000,,2013-04-21 19:21:00,
2013-04-21 15:31:00,64.0,47.0,-100.00,WSW,254,3.0,19.0,53,0.00,,,0.00,376.000000,,2013-04-21 19:31:00,
2013-04-21 15:52:00,66.0,52.0,-100.00,SW,219,4.0,8.0,61,0.00,,,0.00,690.000000,,2013-04-21 19:52:00,
2013-04-21 16:01:00,66.0,52.0,-100.00,SW,219,4.0,8.0,61,0.00,,,0.00,690.000000,,2013-04-21 20:01:00,
2013-04-21 16:11:00,66.0,52.0,-100.00,SW,219,4.0,8.0,61,0.00,,,0.00,690.000000,,2013-04-21 20:11:00,
2013-04-21 16:22:00,66.0,52.0,-100.00,SW,219,4.0,8.0,61,0.00,,,0.00,690.000000,,2013-04-21 20:22:00,
2013-04-21 16:31:00,66.0,52.0,-100.00,SW,219,4.0,8.0,61,0.00,,,0.00,690.000000,,2013-04-21 20:31:00,
2013-04-21 16:52:00,64.0,54.0,-100.00,SW,231,4.0,11.0,69,0.00,,,0.00,942.000000,,2013-04-21 20:52:00,
2013-04-21 17:02:00,64.0,54.0,-100.00,SW,231,4.0,11.0,69,0.00,,,0.00,942.000000,,2013-04-21 21:02:00,
2013-04-21 17:12:00,64.0,54.0,-100.00,SW,231,4.0,11.0,69,0.00,,,0.00,942.000000,,2013-04-21 21:12:00,
2013-04-21 17:21:00,64.0,54.0,-100.00,SW,231,4.0,11.0,69,0.00,,,0.00,942.000000,,2013-04-21 21:21:00,
2013-04-21 17:32:00,64.0,54.0,-100.00,SW,231,4.0,11.0,69,0.00,,,0.00,942.000000,,2013-04-21 21:32:00,
2013-04-21 17:53:00,69.0,57.0,-100.00,WSW,255,4.0,10.0,65,0.00,,,0.00,958.000000,,2013-04-21 21:53:00,
2013-04-21 18:02:00,69.0,57.0,-100.00,WSW,255,4.0,10.0,65,0.00,,,0.00,958.000000,,2013-04-21 22:02:00,
2013-04-21 18:12:00,69.0,57.0,-100.00,WSW,255,4.0,10.0,65,0.00,,,0.00,958.000000,,2013-04-21 22:12:00,
2013-04-21 18:22:00,69.0,57.0,-100.00,WSW,255,4.0,10.0,65,0.00,,,0.00,958.000000,,2013-04-21 22:22:00,
2013-04-21 18:32:00,69.0,57.0,-100.00,WSW,255,4.0,10.0,65,0.00,,,0.00,958.000000,,2013-04-21 22:32:00,
2013-04-21 18:52:00,68.0,55.0,-100.00,WSW,243,6.0,11.0,63,0.00,,,0.00,1113.000000,,2013-04-21 22:52:00,
2013-04-21 19:02:00,68.0,55.0,-100.00,WSW,243,6.0,11.0,63,0.00,,,0.00,1113.000000,,2013-04-21 23:02:00,
2013-04-21 19:12:00,68.0,55.0,-100.00,WSW,243,6.0,11.0,63,0.00,,,0.00,1113.000000,,2013-04-21 23:12:00,
2013-04-21 19:22:00,68.0,55.0,-100.00,WSW,243,6.0,11.0,63,0.00,,,0.00,1113.000000,,2013-04-21 23:22:00,
2013-04-21 19:32:00,68.0,55.0,-100.00,WSW,243,6.0,11.0,63,0.00,,,0.00,1113.000000,,2013-04-21 23:32:00,
2013-04-21 19:52:00,69.0,53.0,-100.00,WSW,251,6.0,12.0,57,0.00,,,0.00,1123.000000,,2013-04-21 23:52:00,
2013-04-21 20:01:00,69.0,53.0,-100.00,WSW,251,6.0,12.0,57,0.00,,,0.00,1123.000000,,2013-04-22 00:01:00,
2013-04-21 20:11:00,69.0,53.0,-100.00,WSW,251,6.0,12.0,57,0.00,,,0.00,1123.000000,,2013-04-22 00:11:00,
2013-04-21 20:21:00,69.0,53.0,-100.00,WSW,251,6.0,12.0,57,0.00,,,0.00,1123.000000,,2013-04-22 00:21:00,
2013-04-21 20:31:00,69.0,53.0,-100.00,WSW,251,6.0,12.0,57,0.00,,,0.00,1123.000000,,2013-04-22 00:31:00,
2013-04-21 20:52:00,68.0,54.0,-100.00,West,262,6.0,11.0,60,0.00,,,0.00,1318.000000,,2013-04-22 00:52:00,
2013-04-21 21:01:00,68.0,54.0,-100.00,West,262,6.0,11.0,60,0.00,,,0.00,1318.000000,,2013-04-22 01:01:00,
2013-04-21 21:11:00,68.0,54.0,-100.00,West,262,6.0,11.0,60,0.00,,,0.00,1318.000000,,2013-04-22 01:11:00,
2013-04-21 21:21:00,68.0,54.0,-100.00,West,262,6.0,11.0,60,0.00,,,0.00,1318.000000,,2013-04-22 01:21:00,
2013-04-21 21:32:00,68.0,54.0,-100.00,West,262,6.0,11.0,60,0.00,,,0.00,1318.000000,,2013-04-22 01:32:00,
2013-04-21 21:52:00,69.0,53.0,-100.00,WSW,239,6.0,13.0,57,0.00,,,0.00,1262.000000,,2013-04-22 01:52:00,
2013-04-21 22:01:00,69.0,53.0,-100.00,WSW,239,6.0,13.0,57,0.00,,,0.00,1262.000000,,2013-04-22 02:01:00,
2013-04-21 22:11:00,69.0,53.0,-100.00,WSW,239,6.0,13.0,57,0.00,,,0.00,1262.000000,,2013-04-22 02:11:00,
2013-04-21 22:21:00,69.0,53.0,-100.00,WSW,239,6.0,13.0,57,0.00,,,0.00,1262.000000,,2013-04-22 02:21:00,
2013-04-21 22:31:00,69.0,53.0,-100.00,WSW,239,6.0,13.0,57,0.00,,,0.00,1262.000000,,2013-04-22 02:31:00,
2013-04-21 22:33:00,69.0,53.0,-100.00,WNW,290,5.0,20.0,57,0.00,,,0.00,968.000000,,2013-04-22 02:33:00,
2013-04-21 22:52:00,69.0,53.0,-100.00,WNW,290,5.0,20.0,57,0.00,,,0.00,968.000000,,2013-04-22 02:52:00,
2013-04-21 23:02:00,69.0,53.0,-100.00,WNW,290,5.0,20.0,57,0.00,,,0.00,968.000000,,2013-04-22 03:02:00,
2013-04-21 23:11:00,69.0,53.0,-100.00,WNW,290,5.0,20.0,57,0.00,,,0.00,968.000000,,2013-04-22 03:11:00,
2013-04-21 23:22:00,69.0,53.0,-100.00,WNW,290,5.0,20.0,57,0.00,,,0.00,968.000000,,2013-04-22 03:22:00,
2013-04-21 23:52:00,60.0,53.0,-100.00,NW,321,2.0,9.0,79,0.00,,,0.00,385.000000,,2013-04-22 03:52:00,